Airport View

Enter AWOS ICAO identifier for current METAR.

ex. KFNL

KMMV 210053Z AUTO 12005KT 10SM FEW042 BKN050 BKN060 21/13 A3010 RMK AO2 SLP193 T02110128

21 Sep 2019 01:25

Frequency: 135.675

Phone: 503-434-9153

Other Area AWOS: KUAO - KSLE - KHIO - KTMK

TAF KSLE 202324Z 2100/2124 VRB03KT P6SM BKN040 FM210300 VRB03KT P6SM SCT050 FM211400 00000KT P6SM OVC025 FM211900 VRB04KT P6SM OVC050